sensor_id;sensor_type;location;lat;lon;timestamp;P1;durP1;ratioP1;P2;durP2;ratioP2
2039;SDS011;1025;42.686;23.350;2023-12-22T00:01:06;30.70;;;22.40;;
2039;SDS011;1025;42.686;23.350;2023-12-22T00:03:32;29.67;;;21.67;;
2039;SDS011;1025;42.686;23.350;2023-12-22T00:05:59;30.17;;;23.20;;
2039;SDS011;1025;42.686;23.350;2023-12-22T00:08:25;36.10;;;24.07;;
2039;SDS011;1025;42.686;23.350;2023-12-22T00:10:53;26.37;;;21.50;;
2039;SDS011;1025;42.686;23.350;2023-12-22T00:13:20;30.23;;;22.47;;
2039;SDS011;1025;42.686;23.350;2023-12-22T00:15:46;31.00;;;21.57;;
2039;SDS011;1025;42.686;23.350;2023-12-22T00:18:13;36.97;;;22.60;;
2039;SDS011;1025;42.686;23.350;2023-12-22T00:20:39;34.20;;;23.45;;
2039;SDS011;1025;42.686;23.350;2023-12-22T00:23:05;26.57;;;20.90;;
2039;SDS011;1025;42.686;23.350;2023-12-22T00:25:32;30.90;;;20.80;;
2039;SDS011;1025;42.686;23.350;2023-12-22T00:28:00;28.50;;;21.97;;
2039;SDS011;1025;42.686;23.350;2023-12-22T00:30:26;33.40;;;22.80;;
2039;SDS011;1025;42.686;23.350;2023-12-22T00:32:53;31.63;;;19.13;;
2039;SDS011;1025;42.686;23.350;2023-12-22T00:35:19;29.40;;;22.00;;
2039;SDS011;1025;42.686;23.350;2023-12-22T00:37:46;28.20;;;21.77;;
2039;SDS011;1025;42.686;23.350;2023-12-22T00:40:12;27.85;;;21.73;;
2039;SDS011;1025;42.686;23.350;2023-12-22T00:42:39;24.15;;;20.92;;
2039;SDS011;1025;42.686;23.350;2023-12-22T00:45:07;26.60;;;20.17;;
2039;SDS011;1025;42.686;23.350;2023-12-22T00:47:34;27.63;;;20.42;;
2039;SDS011;1025;42.686;23.350;2023-12-22T00:50:00;23.87;;;18.37;;
2039;SDS011;1025;42.686;23.350;2023-12-22T00:52:27;25.60;;;19.27;;
2039;SDS011;1025;42.686;23.350;2023-12-22T00:54:53;22.57;;;19.27;;
2039;SDS011;1025;42.686;23.350;2023-12-22T00:57:20;23.73;;;18.80;;
2039;SDS011;1025;42.686;23.350;2023-12-22T00:59:46;23.65;;;16.10;;
2039;SDS011;1025;42.686;23.350;2023-12-22T01:02:15;26.70;;;18.10;;
2039;SDS011;1025;42.686;23.350;2023-12-22T01:04:41;23.63;;;19.63;;
2039;SDS011;1025;42.686;23.350;2023-12-22T01:07:08;34.87;;;19.33;;
2039;SDS011;1025;42.686;23.350;2023-12-22T01:09:35;19.73;;;17.63;;
2039;SDS011;1025;42.686;23.350;2023-12-22T01:12:02;24.27;;;18.97;;
2039;SDS011;1025;42.686;23.350;2023-12-22T01:14:29;21.73;;;17.30;;
2039;SDS011;1025;42.686;23.350;2023-12-22T01:16:55;21.27;;;18.00;;
2039;SDS011;1025;42.686;23.350;2023-12-22T01:19:24;28.27;;;19.33;;
2039;SDS011;1025;42.686;23.350;2023-12-22T01:21:51;22.43;;;18.70;;
2039;SDS011;1025;42.686;23.350;2023-12-22T01:24:17;25.30;;;19.27;;
2039;SDS011;1025;42.686;23.350;2023-12-22T01:26:44;32.23;;;20.60;;
2039;SDS011;1025;42.686;23.350;2023-12-22T01:29:10;22.70;;;19.10;;
2039;SDS011;1025;42.686;23.350;2023-12-22T01:31:37;22.40;;;16.63;;
2039;SDS011;1025;42.686;23.350;2023-12-22T01:34:03;24.27;;;18.75;;
2039;SDS011;1025;42.686;23.350;2023-12-22T01:36:31;22.83;;;19.40;;
2039;SDS011;1025;42.686;23.350;2023-12-22T01:38:58;22.83;;;18.30;;
2039;SDS011;1025;42.686;23.350;2023-12-22T01:41:24;18.90;;;15.47;;
2039;SDS011;1025;42.686;23.350;2023-12-22T01:43:51;20.65;;;17.20;;
2039;SDS011;1025;42.686;23.350;2023-12-22T01:46:17;21.87;;;16.80;;
2039;SDS011;1025;42.686;23.350;2023-12-22T01:48:44;22.67;;;18.00;;
2039;SDS011;1025;42.686;23.350;2023-12-22T01:51:10;20.93;;;14.70;;
2039;SDS011;1025;42.686;23.350;2023-12-22T01:53:38;23.83;;;15.90;;
2039;SDS011;1025;42.686;23.350;2023-12-22T01:56:05;18.90;;;15.27;;
2039;SDS011;1025;42.686;23.350;2023-12-22T01:58:32;22.20;;;16.23;;
2039;SDS011;1025;42.686;23.350;2023-12-22T02:00:59;20.83;;;16.40;;
2039;SDS011;1025;42.686;23.350;2023-12-22T02:03:27;16.63;;;14.30;;
2039;SDS011;1025;42.686;23.350;2023-12-22T02:05:54;18.87;;;14.63;;
2039;SDS011;1025;42.686;23.350;2023-12-22T02:08:21;19.07;;;15.77;;
2039;SDS011;1025;42.686;23.350;2023-12-22T02:10:50;16.20;;;14.20;;
2039;SDS011;1025;42.686;23.350;2023-12-22T02:13:16;20.73;;;14.40;;
2039;SDS011;1025;42.686;23.350;2023-12-22T02:15:43;19.57;;;15.07;;
2039;SDS011;1025;42.686;23.350;2023-12-22T02:18:11;19.57;;;15.33;;
2039;SDS011;1025;42.686;23.350;2023-12-22T02:20:38;23.37;;;15.87;;
2039;SDS011;1025;42.686;23.350;2023-12-22T02:23:06;22.60;;;17.47;;
2039;SDS011;1025;42.686;23.350;2023-12-22T02:25:32;23.90;;;17.00;;
2039;SDS011;1025;42.686;23.350;2023-12-22T02:28:01;28.67;;;21.60;;
2039;SDS011;1025;42.686;23.350;2023-12-22T02:30:31;27.30;;;21.33;;
2039;SDS011;1025;42.686;23.350;2023-12-22T02:32:59;27.27;;;22.70;;
2039;SDS011;1025;42.686;23.350;2023-12-22T02:35:26;29.17;;;23.77;;
2039;SDS011;1025;42.686;23.350;2023-12-22T02:37:53;23.87;;;17.93;;
2039;SDS011;1025;42.686;23.350;2023-12-22T02:40:21;29.13;;;22.83;;
2039;SDS011;1025;42.686;23.350;2023-12-22T02:42:48;30.87;;;19.43;;
2039;SDS011;1025;42.686;23.350;2023-12-22T02:45:15;22.43;;;17.20;;
2039;SDS011;1025;42.686;23.350;2023-12-22T02:47:42;26.80;;;19.07;;
2039;SDS011;1025;42.686;23.350;2023-12-22T02:50:09;25.23;;;19.27;;
2039;SDS011;1025;42.686;23.350;2023-12-22T02:52:35;22.30;;;18.00;;
2039;SDS011;1025;42.686;23.350;2023-12-22T02:55:02;24.17;;;19.60;;
2039;SDS011;1025;42.686;23.350;2023-12-22T02:57:30;22.20;;;17.17;;
2039;SDS011;1025;42.686;23.350;2023-12-22T02:59:56;23.33;;;17.43;;
2039;SDS011;1025;42.686;23.350;2023-12-22T03:02:23;27.90;;;18.67;;
2039;SDS011;1025;42.686;23.350;2023-12-22T03:04:49;23.47;;;16.67;;
2039;SDS011;1025;42.686;23.350;2023-12-22T03:07:16;19.50;;;14.60;;
2039;SDS011;1025;42.686;23.350;2023-12-22T03:09:43;21.97;;;16.50;;
2039;SDS011;1025;42.686;23.350;2023-12-22T03:12:09;24.40;;;17.10;;
2039;SDS011;1025;42.686;23.350;2023-12-22T03:14:38;19.60;;;16.23;;
2039;SDS011;1025;42.686;23.350;2023-12-22T03:17:04;23.53;;;15.07;;
2039;SDS011;1025;42.686;23.350;2023-12-22T03:19:31;20.20;;;16.60;;
2039;SDS011;1025;42.686;23.350;2023-12-22T03:21:58;16.70;;;14.83;;
2039;SDS011;1025;42.686;23.350;2023-12-22T03:24:25;21.90;;;16.03;;
2039;SDS011;1025;42.686;23.350;2023-12-22T03:26:51;26.40;;;19.00;;
2039;SDS011;1025;42.686;23.350;2023-12-22T03:29:18;21.20;;;15.93;;
2039;SDS011;1025;42.686;23.350;2023-12-22T03:31:46;22.73;;;15.70;;
2039;SDS011;1025;42.686;23.350;2023-12-22T03:34:12;18.17;;;14.83;;
2039;SDS011;1025;42.686;23.350;2023-12-22T03:36:39;21.40;;;16.13;;
2039;SDS011;1025;42.686;23.350;2023-12-22T03:39:06;17.80;;;15.00;;
2039;SDS011;1025;42.686;23.350;2023-12-22T03:41:32;17.87;;;15.10;;
2039;SDS011;1025;42.686;23.350;2023-12-22T03:43:59;20.17;;;15.80;;
2039;SDS011;1025;42.686;23.350;2023-12-22T03:46:25;21.43;;;15.10;;
2039;SDS011;1025;42.686;23.350;2023-12-22T03:48:53;16.53;;;14.20;;
2039;SDS011;1025;42.686;23.350;2023-12-22T03:51:20;17.43;;;14.10;;
2039;SDS011;1025;42.686;23.350;2023-12-22T03:53:46;18.33;;;14.33;;
2039;SDS011;1025;42.686;23.350;2023-12-22T03:56:13;20.80;;;15.47;;
2039;SDS011;1025;42.686;23.350;2023-12-22T03:58:39;19.20;;;15.57;;
2039;SDS011;1025;42.686;23.350;2023-12-22T04:01:05;22.27;;;18.40;;
2039;SDS011;1025;42.686;23.350;2023-12-22T04:03:32;20.87;;;16.07;;
2039;SDS011;1025;42.686;23.350;2023-12-22T04:06:02;16.83;;;15.03;;
2039;SDS011;1025;42.686;23.350;2023-12-22T04:08:28;21.07;;;17.60;;
2039;SDS011;1025;42.686;23.350;2023-12-22T04:10:55;21.17;;;16.80;;
2039;SDS011;1025;42.686;23.350;2023-12-22T04:13:21;23.23;;;15.60;;
2039;SDS011;1025;42.686;23.350;2023-12-22T04:15:48;19.87;;;16.77;;
2039;SDS011;1025;42.686;23.350;2023-12-22T04:18:14;22.67;;;18.03;;
2039;SDS011;1025;42.686;23.350;2023-12-22T04:20:41;27.10;;;16.07;;
2039;SDS011;1025;42.686;23.350;2023-12-22T04:23:09;20.80;;;15.17;;
2039;SDS011;1025;42.686;23.350;2023-12-22T04:25:35;21.57;;;15.87;;
2039;SDS011;1025;42.686;23.350;2023-12-22T04:28:02;22.67;;;19.47;;
2039;SDS011;1025;42.686;23.350;2023-12-22T04:30:28;21.43;;;18.10;;
2039;SDS011;1025;42.686;23.350;2023-12-22T04:32:55;23.60;;;18.30;;
2039;SDS011;1025;42.686;23.350;2023-12-22T04:35:21;21.10;;;16.87;;
2039;SDS011;1025;42.686;23.350;2023-12-22T04:37:48;26.30;;;16.90;;
2039;SDS011;1025;42.686;23.350;2023-12-22T04:40:16;24.97;;;18.20;;
2039;SDS011;1025;42.686;23.350;2023-12-22T04:42:42;28.10;;;20.57;;
2039;SDS011;1025;42.686;23.350;2023-12-22T04:45:09;24.40;;;17.43;;
2039;SDS011;1025;42.686;23.350;2023-12-22T04:47:35;24.50;;;17.33;;
2039;SDS011;1025;42.686;23.350;2023-12-22T04:50:02;24.40;;;17.70;;
2039;SDS011;1025;42.686;23.350;2023-12-22T04:52:29;27.20;;;18.90;;
2039;SDS011;1025;42.686;23.350;2023-12-22T04:54:56;21.90;;;15.03;;
2039;SDS011;1025;42.686;23.350;2023-12-22T04:57:27;26.43;;;18.73;;
2039;SDS011;1025;42.686;23.350;2023-12-22T04:59:53;34.07;;;18.90;;
2039;SDS011;1025;42.686;23.350;2023-12-22T05:02:20;24.10;;;18.03;;
2039;SDS011;1025;42.686;23.350;2023-12-22T05:04:46;24.20;;;18.73;;
2039;SDS011;1025;42.686;23.350;2023-12-22T05:07:13;36.77;;;19.63;;
2039;SDS011;1025;42.686;23.350;2023-12-22T05:09:40;23.13;;;17.97;;
2039;SDS011;1025;42.686;23.350;2023-12-22T05:12:07;24.60;;;18.47;;
2039;SDS011;1025;42.686;23.350;2023-12-22T05:14:35;28.30;;;17.73;;
2039;SDS011;1025;42.686;23.350;2023-12-22T05:17:01;35.63;;;21.80;;
2039;SDS011;1025;42.686;23.350;2023-12-22T05:19:27;28.77;;;20.00;;
2039;SDS011;1025;42.686;23.350;2023-12-22T05:21:54;23.40;;;17.30;;
2039;SDS011;1025;42.686;23.350;2023-12-22T05:24:21;20.90;;;17.13;;
2039;SDS011;1025;42.686;23.350;2023-12-22T05:26:48;24.10;;;18.93;;
2039;SDS011;1025;42.686;23.350;2023-12-22T05:29:14;21.30;;;18.10;;
2039;SDS011;1025;42.686;23.350;2023-12-22T05:31:42;24.33;;;16.73;;
2039;SDS011;1025;42.686;23.350;2023-12-22T05:34:09;24.60;;;18.17;;
2039;SDS011;1025;42.686;23.350;2023-12-22T05:36:35;21.83;;;17.77;;
2039;SDS011;1025;42.686;23.350;2023-12-22T05:39:02;23.60;;;19.20;;
2039;SDS011;1025;42.686;23.350;2023-12-22T05:41:29;22.93;;;17.23;;
2039;SDS011;1025;42.686;23.350;2023-12-22T05:43:55;21.33;;;18.57;;
2039;SDS011;1025;42.686;23.350;2023-12-22T05:46:21;17.10;;;14.60;;
2039;SDS011;1025;42.686;23.350;2023-12-22T05:48:49;19.90;;;16.13;;
2039;SDS011;1025;42.686;23.350;2023-12-22T05:51:16;22.90;;;17.37;;
2039;SDS011;1025;42.686;23.350;2023-12-22T05:53:43;23.83;;;17.07;;
2039;SDS011;1025;42.686;23.350;2023-12-22T05:56:18;21.93;;;14.67;;
2039;SDS011;1025;42.686;23.350;2023-12-22T05:58:45;15.73;;;14.13;;
2039;SDS011;1025;42.686;23.350;2023-12-22T06:01:14;19.67;;;17.27;;
2039;SDS011;1025;42.686;23.350;2023-12-22T06:03:40;18.87;;;16.00;;
2039;SDS011;1025;42.686;23.350;2023-12-22T06:06:08;23.63;;;18.43;;
2039;SDS011;1025;42.686;23.350;2023-12-22T06:08:34;18.73;;;14.47;;
2039;SDS011;1025;42.686;23.350;2023-12-22T06:11:01;17.40;;;15.00;;
2039;SDS011;1025;42.686;23.350;2023-12-22T06:13:27;20.97;;;17.00;;
2039;SDS011;1025;42.686;23.350;2023-12-22T06:15:54;23.40;;;16.93;;
2039;SDS011;1025;42.686;23.350;2023-12-22T06:18:20;25.43;;;17.80;;
2039;SDS011;1025;42.686;23.350;2023-12-22T06:20:47;19.43;;;15.23;;
2039;SDS011;1025;42.686;23.350;2023-12-22T06:23:15;25.23;;;17.33;;
2039;SDS011;1025;42.686;23.350;2023-12-22T06:25:42;21.83;;;17.00;;
2039;SDS011;1025;42.686;23.350;2023-12-22T06:28:08;21.43;;;17.00;;
2039;SDS011;1025;42.686;23.350;2023-12-22T06:30:35;24.70;;;16.70;;
2039;SDS011;1025;42.686;23.350;2023-12-22T06:33:01;17.13;;;14.43;;
2039;SDS011;1025;42.686;23.350;2023-12-22T06:35:28;22.53;;;17.90;;
2039;SDS011;1025;42.686;23.350;2023-12-22T06:37:54;20.37;;;16.77;;
2039;SDS011;1025;42.686;23.350;2023-12-22T06:40:22;17.90;;;16.00;;
2039;SDS011;1025;42.686;23.350;2023-12-22T06:42:49;18.40;;;16.40;;
2039;SDS011;1025;42.686;23.350;2023-12-22T06:45:15;29.43;;;22.47;;
2039;SDS011;1025;42.686;23.350;2023-12-22T06:47:42;27.07;;;19.03;;
2039;SDS011;1025;42.686;23.350;2023-12-22T06:50:08;22.93;;;16.60;;
2039;SDS011;1025;42.686;23.350;2023-12-22T06:52:35;17.03;;;15.33;;
2039;SDS011;1025;42.686;23.350;2023-12-22T06:55:01;21.43;;;16.40;;
2039;SDS011;1025;42.686;23.350;2023-12-22T06:57:29;26.53;;;18.13;;
2039;SDS011;1025;42.686;23.350;2023-12-22T06:59:56;25.07;;;19.30;;
2039;SDS011;1025;42.686;23.350;2023-12-22T07:02:22;22.03;;;18.53;;
2039;SDS011;1025;42.686;23.350;2023-12-22T07:04:59;26.03;;;19.90;;
2039;SDS011;1025;42.686;23.350;2023-12-22T07:07:29;25.73;;;17.00;;
2039;SDS011;1025;42.686;23.350;2023-12-22T07:09:56;20.93;;;15.57;;
2039;SDS011;1025;42.686;23.350;2023-12-22T07:12:22;26.10;;;17.00;;
2039;SDS011;1025;42.686;23.350;2023-12-22T07:14:50;24.00;;;19.40;;
2039;SDS011;1025;42.686;23.350;2023-12-22T07:17:16;21.90;;;18.57;;
2039;SDS011;1025;42.686;23.350;2023-12-22T07:19:43;28.93;;;15.97;;
2039;SDS011;1025;42.686;23.350;2023-12-22T07:22:09;28.23;;;19.40;;
2039;SDS011;1025;42.686;23.350;2023-12-22T07:24:36;27.43;;;18.93;;
2039;SDS011;1025;42.686;23.350;2023-12-22T07:27:03;23.43;;;17.87;;
2039;SDS011;1025;42.686;23.350;2023-12-22T07:29:30;32.30;;;20.57;;
2039;SDS011;1025;42.686;23.350;2023-12-22T07:31:58;19.33;;;16.70;;
2039;SDS011;1025;42.686;23.350;2023-12-22T07:34:27;24.20;;;19.10;;
2039;SDS011;1025;42.686;23.350;2023-12-22T07:36:56;22.43;;;19.60;;
2039;SDS011;1025;42.686;23.350;2023-12-22T07:39:22;22.00;;;19.70;;
2039;SDS011;1025;42.686;23.350;2023-12-22T07:41:49;21.90;;;18.13;;
2039;SDS011;1025;42.686;23.350;2023-12-22T07:44:15;21.67;;;16.80;;
2039;SDS011;1025;42.686;23.350;2023-12-22T07:46:42;24.60;;;18.20;;
2039;SDS011;1025;42.686;23.350;2023-12-22T07:49:10;21.10;;;18.97;;
2039;SDS011;1025;42.686;23.350;2023-12-22T07:51:37;25.50;;;18.80;;
2039;SDS011;1025;42.686;23.350;2023-12-22T07:54:04;19.47;;;14.73;;
2039;SDS011;1025;42.686;23.350;2023-12-22T07:56:31;19.50;;;15.73;;
2039;SDS011;1025;42.686;23.350;2023-12-22T07:58:58;21.40;;;18.57;;
2039;SDS011;1025;42.686;23.350;2023-12-22T08:01:25;20.43;;;16.07;;
2039;SDS011;1025;42.686;23.350;2023-12-22T08:03:51;21.30;;;15.03;;
2039;SDS011;1025;42.686;23.350;2023-12-22T08:06:19;26.03;;;16.27;;
2039;SDS011;1025;42.686;23.350;2023-12-22T08:08:46;20.73;;;17.37;;
2039;SDS011;1025;42.686;23.350;2023-12-22T08:11:12;24.40;;;16.27;;
2039;SDS011;1025;42.686;23.350;2023-12-22T08:13:39;25.00;;;17.93;;
2039;SDS011;1025;42.686;23.350;2023-12-22T08:16:05;25.77;;;15.30;;
2039;SDS011;1025;42.686;23.350;2023-12-22T08:18:32;19.27;;;17.07;;
2039;SDS011;1025;42.686;23.350;2023-12-22T08:20:59;21.00;;;16.83;;
2039;SDS011;1025;42.686;23.350;2023-12-22T08:23:27;22.70;;;18.80;;
2039;SDS011;1025;42.686;23.350;2023-12-22T08:25:54;25.13;;;20.67;;
2039;SDS011;1025;42.686;23.350;2023-12-22T08:28:22;22.50;;;20.07;;
2039;SDS011;1025;42.686;23.350;2023-12-22T08:30:49;25.33;;;20.77;;
2039;SDS011;1025;42.686;23.350;2023-12-22T08:33:16;23.57;;;19.03;;
2039;SDS011;1025;42.686;23.350;2023-12-22T08:35:42;25.80;;;19.80;;
2039;SDS011;1025;42.686;23.350;2023-12-22T08:38:09;27.37;;;19.17;;
2039;SDS011;1025;42.686;23.350;2023-12-22T08:40:37;36.90;;;18.17;;
2039;SDS011;1025;42.686;23.350;2023-12-22T08:43:03;24.53;;;18.00;;
2039;SDS011;1025;42.686;23.350;2023-12-22T08:45:31;25.90;;;19.47;;
2039;SDS011;1025;42.686;23.350;2023-12-22T08:47:58;24.83;;;20.20;;
2039;SDS011;1025;42.686;23.350;2023-12-22T08:50:25;22.43;;;17.90;;
2039;SDS011;1025;42.686;23.350;2023-12-22T08:52:52;26.53;;;19.63;;
2039;SDS011;1025;42.686;23.350;2023-12-22T08:55:18;28.57;;;21.30;;
2039;SDS011;1025;42.686;23.350;2023-12-22T08:57:46;30.73;;;20.27;;
2039;SDS011;1025;42.686;23.350;2023-12-22T09:00:13;24.00;;;19.90;;
2039;SDS011;1025;42.686;23.350;2023-12-22T09:02:40;24.90;;;20.57;;
2039;SDS011;1025;42.686;23.350;2023-12-22T09:05:06;29.50;;;24.40;;
2039;SDS011;1025;42.686;23.350;2023-12-22T09:07:33;27.37;;;21.30;;
2039;SDS011;1025;42.686;23.350;2023-12-22T09:10:00;25.53;;;22.20;;
2039;SDS011;1025;42.686;23.350;2023-12-22T09:12:26;26.43;;;21.90;;
2039;SDS011;1025;42.686;23.350;2023-12-22T09:14:54;29.53;;;23.17;;
2039;SDS011;1025;42.686;23.350;2023-12-22T09:17:20;28.47;;;22.00;;
2039;SDS011;1025;42.686;23.350;2023-12-22T09:19:47;30.33;;;21.83;;
2039;SDS011;1025;42.686;23.350;2023-12-22T09:22:13;26.20;;;22.57;;
2039;SDS011;1025;42.686;23.350;2023-12-22T09:24:40;27.13;;;22.17;;
2039;SDS011;1025;42.686;23.350;2023-12-22T09:27:06;36.90;;;24.80;;
2039;SDS011;1025;42.686;23.350;2023-12-22T09:29:34;35.77;;;22.97;;
2039;SDS011;1025;42.686;23.350;2023-12-22T09:32:02;32.27;;;24.17;;
2039;SDS011;1025;42.686;23.350;2023-12-22T09:34:29;30.07;;;24.07;;
2039;SDS011;1025;42.686;23.350;2023-12-22T09:36:56;31.03;;;23.87;;
2039;SDS011;1025;42.686;23.350;2023-12-22T09:39:22;27.70;;;20.07;;
2039;SDS011;1025;42.686;23.350;2023-12-22T09:41:49;26.03;;;20.30;;
2039;SDS011;1025;42.686;23.350;2023-12-22T09:44:15;25.73;;;22.57;;
2039;SDS011;1025;42.686;23.350;2023-12-22T09:46:43;27.83;;;20.00;;
2039;SDS011;1025;42.686;23.350;2023-12-22T09:49:11;26.40;;;19.27;;
2039;SDS011;1025;42.686;23.350;2023-12-22T09:51:38;23.27;;;19.10;;
2039;SDS011;1025;42.686;23.350;2023-12-22T09:54:04;27.87;;;19.73;;
2039;SDS011;1025;42.686;23.350;2023-12-22T09:56:31;26.60;;;21.67;;
2039;SDS011;1025;42.686;23.350;2023-12-22T09:58:59;31.70;;;22.60;;
2039;SDS011;1025;42.686;23.350;2023-12-22T10:01:26;30.53;;;19.60;;
2039;SDS011;1025;42.686;23.350;2023-12-22T10:03:53;25.63;;;20.40;;
2039;SDS011;1025;42.686;23.350;2023-12-22T10:06:21;27.97;;;19.20;;
2039;SDS011;1025;42.686;23.350;2023-12-22T10:08:48;24.00;;;18.23;;
2039;SDS011;1025;42.686;23.350;2023-12-22T10:11:16;26.57;;;20.47;;
2039;SDS011;1025;42.686;23.350;2023-12-22T10:13:43;21.43;;;19.20;;
2039;SDS011;1025;42.686;23.350;2023-12-22T10:16:10;26.20;;;18.47;;
2039;SDS011;1025;42.686;23.350;2023-12-22T10:18:36;24.83;;;19.03;;
2039;SDS011;1025;42.686;23.350;2023-12-22T10:21:03;24.17;;;19.80;;
2039;SDS011;1025;42.686;23.350;2023-12-22T10:23:31;32.77;;;20.73;;
2039;SDS011;1025;42.686;23.350;2023-12-22T10:25:58;21.53;;;19.43;;
2039;SDS011;1025;42.686;23.350;2023-12-22T10:28:26;23.20;;;19.37;;
2039;SDS011;1025;42.686;23.350;2023-12-22T10:30:53;19.03;;;16.73;;
2039;SDS011;1025;42.686;23.350;2023-12-22T10:33:21;23.00;;;17.47;;
2039;SDS011;1025;42.686;23.350;2023-12-22T10:35:47;21.77;;;17.13;;
2039;SDS011;1025;42.686;23.350;2023-12-22T10:38:17;25.93;;;21.20;;
2039;SDS011;1025;42.686;23.350;2023-12-22T10:40:46;22.40;;;19.93;;
2039;SDS011;1025;42.686;23.350;2023-12-22T10:43:12;24.17;;;20.97;;
2039;SDS011;1025;42.686;23.350;2023-12-22T10:45:39;24.40;;;20.73;;
2039;SDS011;1025;42.686;23.350;2023-12-22T10:48:06;20.23;;;18.10;;
2039;SDS011;1025;42.686;23.350;2023-12-22T10:50:33;20.27;;;17.77;;
2039;SDS011;1025;42.686;23.350;2023-12-22T10:52:59;20.43;;;16.67;;
2039;SDS011;1025;42.686;23.350;2023-12-22T10:55:26;19.53;;;16.37;;
2039;SDS011;1025;42.686;23.350;2023-12-22T10:57:54;18.03;;;13.97;;
2039;SDS011;1025;42.686;23.350;2023-12-22T11:00:21;14.90;;;10.70;;
2039;SDS011;1025;42.686;23.350;2023-12-22T11:02:48;11.43;;;10.00;;
2039;SDS011;1025;42.686;23.350;2023-12-22T11:05:15;8.87;;;8.00;;
2039;SDS011;1025;42.686;23.350;2023-12-22T11:07:45;11.40;;;10.10;;
2039;SDS011;1025;42.686;23.350;2023-12-22T11:10:13;10.77;;;9.60;;
2039;SDS011;1025;42.686;23.350;2023-12-22T11:12:40;9.97;;;8.97;;
2039;SDS011;1025;42.686;23.350;2023-12-22T11:15:10;10.43;;;8.90;;
2039;SDS011;1025;42.686;23.350;2023-12-22T11:17:37;10.70;;;8.50;;
2039;SDS011;1025;42.686;23.350;2023-12-22T11:20:06;8.00;;;7.30;;
2039;SDS011;1025;42.686;23.350;2023-12-22T11:22:35;10.10;;;9.10;;
2039;SDS011;1025;42.686;23.350;2023-12-22T11:25:02;8.27;;;7.47;;
2039;SDS011;1025;42.686;23.350;2023-12-22T11:27:29;12.23;;;8.23;;
2039;SDS011;1025;42.686;23.350;2023-12-22T11:29:55;7.87;;;6.73;;
2039;SDS011;1025;42.686;23.350;2023-12-22T11:32:24;9.23;;;8.00;;
2039;SDS011;1025;42.686;23.350;2023-12-22T11:34:51;8.07;;;7.27;;
2039;SDS011;1025;42.686;23.350;2023-12-22T11:37:18;7.73;;;7.03;;
2039;SDS011;1025;42.686;23.350;2023-12-22T11:39:44;7.23;;;6.17;;
2039;SDS011;1025;42.686;23.350;2023-12-22T11:42:11;7.63;;;5.70;;
2039;SDS011;1025;42.686;23.350;2023-12-22T11:44:39;19.47;;;7.77;;
2039;SDS011;1025;42.686;23.350;2023-12-22T11:47:06;7.13;;;6.00;;
2039;SDS011;1025;42.686;23.350;2023-12-22T11:49:34;7.07;;;6.47;;
2039;SDS011;1025;42.686;23.350;2023-12-22T11:52:10;6.90;;;6.17;;
2039;SDS011;1025;42.686;23.350;2023-12-22T11:54:44;4.87;;;4.33;;
2039;SDS011;1025;42.686;23.350;2023-12-22T11:59:52;3.20;;;2.57;;
2039;SDS011;1025;42.686;23.350;2023-12-22T12:02:19;3.40;;;3.10;;
2039;SDS011;1025;42.686;23.350;2023-12-22T12:04:48;2.83;;;2.63;;
2039;SDS011;1025;42.686;23.350;2023-12-22T12:09:56;3.50;;;3.10;;
2039;SDS011;1025;42.686;23.350;2023-12-22T12:12:23;4.20;;;3.80;;
2039;SDS011;1025;42.686;23.350;2023-12-22T12:14:49;4.50;;;3.53;;
2039;SDS011;1025;42.686;23.350;2023-12-22T12:17:18;5.47;;;4.97;;
2039;SDS011;1025;42.686;23.350;2023-12-22T12:19:45;4.90;;;3.83;;
2039;SDS011;1025;42.686;23.350;2023-12-22T12:22:15;2.53;;;2.03;;
2039;SDS011;1025;42.686;23.350;2023-12-22T12:24:41;3.90;;;3.30;;
2039;SDS011;1025;42.686;23.350;2023-12-22T12:27:08;3.30;;;2.37;;
2039;SDS011;1025;42.686;23.350;2023-12-22T12:29:35;1.70;;;1.53;;
2039;SDS011;1025;42.686;23.350;2023-12-22T12:32:04;6.77;;;1.97;;
2039;SDS011;1025;42.686;23.350;2023-12-22T12:34:31;4.73;;;3.83;;
2039;SDS011;1025;42.686;23.350;2023-12-22T12:36:58;2.47;;;2.27;;
2039;SDS011;1025;42.686;23.350;2023-12-22T12:39:26;2.90;;;2.63;;
2039;SDS011;1025;42.686;23.350;2023-12-22T12:41:56;2.87;;;2.07;;
2039;SDS011;1025;42.686;23.350;2023-12-22T12:44:25;2.40;;;2.17;;
2039;SDS011;1025;42.686;23.350;2023-12-22T12:46:53;3.70;;;2.60;;
2039;SDS011;1025;42.686;23.350;2023-12-22T12:49:19;2.13;;;2.03;;
2039;SDS011;1025;42.686;23.350;2023-12-22T12:51:46;4.30;;;2.60;;
2039;SDS011;1025;42.686;23.350;2023-12-22T12:54:13;2.30;;;2.10;;
2039;SDS011;1025;42.686;23.350;2023-12-22T12:56:42;3.27;;;2.97;;
2039;SDS011;1025;42.686;23.350;2023-12-22T12:59:09;5.03;;;3.03;;
2039;SDS011;1025;42.686;23.350;2023-12-22T13:01:39;7.70;;;5.00;;
2039;SDS011;1025;42.686;23.350;2023-12-22T13:04:05;3.20;;;2.93;;
2039;SDS011;1025;42.686;23.350;2023-12-22T13:06:32;6.63;;;4.00;;
2039;SDS011;1025;42.686;23.350;2023-12-22T13:08:58;3.00;;;2.70;;
2039;SDS011;1025;42.686;23.350;2023-12-22T13:11:26;3.30;;;3.10;;
2039;SDS011;1025;42.686;23.350;2023-12-22T13:13:54;6.63;;;4.07;;
2039;SDS011;1025;42.686;23.350;2023-12-22T13:16:20;3.20;;;3.00;;
2039;SDS011;1025;42.686;23.350;2023-12-22T13:18:48;3.60;;;3.30;;
2039;SDS011;1025;42.686;23.350;2023-12-22T13:21:14;4.90;;;4.50;;
2039;SDS011;1025;42.686;23.350;2023-12-22T13:23:41;9.00;;;4.73;;
2039;SDS011;1025;42.686;23.350;2023-12-22T13:26:17;5.37;;;4.20;;
2039;SDS011;1025;42.686;23.350;2023-12-22T13:28:43;4.53;;;3.63;;
2039;SDS011;1025;42.686;23.350;2023-12-22T13:31:11;5.37;;;4.07;;
2039;SDS011;1025;42.686;23.350;2023-12-22T13:33:39;4.17;;;3.63;;
2039;SDS011;1025;42.686;23.350;2023-12-22T13:36:05;5.93;;;4.13;;
2039;SDS011;1025;42.686;23.350;2023-12-22T13:38:32;7.73;;;3.60;;
2039;SDS011;1025;42.686;23.350;2023-12-22T13:40:59;4.03;;;3.63;;
2039;SDS011;1025;42.686;23.350;2023-12-22T13:43:27;12.83;;;3.60;;
2039;SDS011;1025;42.686;23.350;2023-12-22T13:45:54;7.30;;;3.90;;
2039;SDS011;1025;42.686;23.350;2023-12-22T13:48:22;8.70;;;4.33;;
2039;SDS011;1025;42.686;23.350;2023-12-22T13:50:55;9.40;;;4.57;;
2039;SDS011;1025;42.686;23.350;2023-12-22T13:53:22;12.37;;;5.63;;
2039;SDS011;1025;42.686;23.350;2023-12-22T13:55:53;10.53;;;6.07;;
2039;SDS011;1025;42.686;23.350;2023-12-22T13:58:19;16.70;;;6.60;;
2039;SDS011;1025;42.686;23.350;2023-12-22T14:00:46;6.20;;;3.70;;
2039;SDS011;1025;42.686;23.350;2023-12-22T14:03:13;16.57;;;5.53;;
2039;SDS011;1025;42.686;23.350;2023-12-22T14:05:42;17.47;;;4.97;;
2039;SDS011;1025;42.686;23.350;2023-12-22T14:08:09;7.80;;;3.90;;
2039;SDS011;1025;42.686;23.350;2023-12-22T14:10:35;9.50;;;3.43;;
2039;SDS011;1025;42.686;23.350;2023-12-22T14:13:02;15.17;;;3.30;;
2039;SDS011;1025;42.686;23.350;2023-12-22T14:15:29;12.73;;;4.20;;
2039;SDS011;1025;42.686;23.350;2023-12-22T14:17:55;7.40;;;3.33;;
2039;SDS011;1025;42.686;23.350;2023-12-22T14:20:22;15.50;;;3.17;;
2039;SDS011;1025;42.686;23.350;2023-12-22T14:22:51;7.93;;;4.13;;
2039;SDS011;1025;42.686;23.350;2023-12-22T14:25:17;10.07;;;3.63;;
2039;SDS011;1025;42.686;23.350;2023-12-22T14:27:44;7.90;;;3.53;;
2039;SDS011;1025;42.686;23.350;2023-12-22T14:30:11;14.30;;;3.67;;
2039;SDS011;1025;42.686;23.350;2023-12-22T14:32:37;7.80;;;3.40;;
2039;SDS011;1025;42.686;23.350;2023-12-22T14:35:04;15.07;;;3.70;;
2039;SDS011;1025;42.686;23.350;2023-12-22T14:37:31;5.47;;;2.93;;
2039;SDS011;1025;42.686;23.350;2023-12-22T14:39:59;18.10;;;5.10;;
2039;SDS011;1025;42.686;23.350;2023-12-22T14:42:25;6.63;;;3.07;;
2039;SDS011;1025;42.686;23.350;2023-12-22T14:44:52;20.47;;;7.07;;